createdAt,value
2023-04-02T00:00:32.566Z,69.10
2023-04-02T00:01:40.490Z,69.23
2023-04-02T00:03:00.091Z,69.35
2023-04-02T00:04:04.686Z,69.27
2023-04-02T00:05:20.865Z,69.28
2023-04-02T00:06:45.928Z,69.29
2023-04-02T00:07:51.435Z,69.49
2023-04-02T00:08:57.540Z,69.53
2023-04-02T00:10:00.836Z,69.38
2023-04-02T00:11:04.040Z,69.36
2023-04-02T00:12:17.131Z,69.40
2023-04-02T00:13:19.946Z,69.44
2023-04-02T00:14:37.935Z,69.59
2023-04-02T00:15:47.257Z,69.52
2023-04-02T00:16:50.225Z,69.58
2023-04-02T00:17:53.197Z,69.57
2023-04-02T00:18:59.420Z,69.57
2023-04-02T00:20:10.253Z,69.57
2023-04-02T00:21:33.393Z,69.56
2023-04-02T00:22:36.342Z,69.48
2023-04-02T00:23:45.043Z,69.62
2023-04-02T00:24:51.055Z,69.60
2023-04-02T00:25:54.031Z,69.67
2023-04-02T00:26:57.314Z,69.78
2023-04-02T00:28:00.175Z,69.73
2023-04-02T00:29:04.930Z,69.66
2023-04-02T00:30:09.127Z,69.72
2023-04-02T00:31:12.700Z,69.68
2023-04-02T00:32:23.481Z,69.64
2023-04-02T00:33:29.292Z,69.65
2023-04-02T00:34:37.767Z,69.45
2023-04-02T00:35:41.069Z,69.50
2023-04-02T00:36:45.311Z,69.36
2023-04-02T00:37:48.380Z,69.29
2023-04-02T00:38:51.914Z,69.28
2023-04-02T00:40:09.377Z,69.29
2023-04-02T00:41:19.573Z,69.26
2023-04-02T00:42:23.572Z,69.15
2023-04-02T00:43:29.402Z,69.17
2023-04-02T00:44:39.982Z,69.06
2023-04-02T00:45:43.015Z,69.17
2023-04-02T00:46:50.814Z,69.19
2023-04-02T00:47:54.009Z,69.21
2023-04-02T00:49:02.777Z,69.27
2023-04-02T00:50:16.967Z,69.25
2023-04-02T00:51:28.998Z,69.42
2023-04-02T00:52:34.294Z,69.49
2023-04-02T00:53:37.577Z,69.46
2023-04-02T00:55:11.687Z,69.69
2023-04-02T00:56:20.456Z,69.73
2023-04-02T00:57:27.908Z,69.87
2023-04-02T00:58:37.789Z,69.76
2023-04-02T00:59:57.318Z,69.71
2023-04-02T01:01:01.740Z,69.73
2023-04-02T01:02:18.778Z,69.76
2023-04-02T01:03:24.019Z,69.91
2023-04-02T01:04:37.748Z,69.96
2023-04-02T01:05:42.135Z,70.07
2023-04-02T01:06:45.207Z,70.01
2023-04-02T01:08:15.717Z,69.92
2023-04-02T01:09:30.049Z,69.79
2023-04-02T01:10:44.872Z,69.79
2023-04-02T01:12:13.454Z,69.88
2023-04-02T01:13:25.049Z,69.90
2023-04-02T01:14:30.663Z,69.90
2023-04-02T01:15:44.735Z,70.13
2023-04-02T01:17:07.276Z,70.21
2023-04-02T01:18:28.021Z,70.40
2023-04-02T01:19:33.830Z,70.52
2023-04-02T01:21:16.545Z,70.52
2023-04-02T01:22:54.742Z,70.62
2023-04-02T01:23:57.563Z,70.67
2023-04-02T01:25:05.662Z,70.67
2023-04-02T01:26:20.136Z,70.74
2023-04-02T01:27:29.984Z,70.71
2023-04-02T01:29:12.000Z,70.85
2023-04-02T01:30:15.843Z,70.76
2023-04-02T01:31:19.112Z,70.77
2023-04-02T01:32:23.920Z,70.70
2023-04-02T01:33:31.161Z,70.59
2023-04-02T01:34:36.073Z,70.76
2023-04-02T01:35:42.840Z,70.73
2023-04-02T01:37:16.251Z,70.87
2023-04-02T01:38:28.573Z,70.97
2023-04-02T01:39:37.682Z,71.10
2023-04-02T01:40:59.897Z,71.22
2023-04-02T01:42:21.090Z,71.07
2023-04-02T01:43:23.893Z,71.19
2023-04-02T01:44:42.977Z,71.13
2023-04-02T01:45:46.592Z,71.32
2023-04-02T01:46:51.407Z,71.28
2023-04-02T01:47:54.449Z,71.34
2023-04-02T01:49:01.030Z,71.43
2023-04-02T01:50:21.359Z,71.19
2023-04-02T01:51:30.358Z,71.16
2023-04-02T01:52:42.376Z,71.20
2023-04-02T01:53:45.336Z,71.15
2023-04-02T01:54:49.211Z,71.25
2023-04-02T01:55:58.335Z,71.16
2023-04-02T01:57:01.295Z,71.14
2023-04-02T01:58:05.258Z,71.14
2023-04-02T01:59:08.446Z,71.13
2023-04-02T02:00:17.133Z,71.29
2023-04-02T02:01:24.588Z,71.41
2023-04-02T02:02:27.863Z,71.23
2023-04-02T02:03:31.631Z,71.06
2023-04-02T02:04:35.899Z,71.03
2023-04-02T02:05:38.913Z,71.02
2023-04-02T02:06:42.312Z,71.07
2023-04-02T02:07:46.141Z,71.07
2023-04-02T02:08:56.236Z,70.94
2023-04-02T02:09:59.251Z,70.86
2023-04-02T02:11:03.048Z,70.73
2023-04-02T02:12:06.621Z,70.55
2023-04-02T02:13:16.063Z,70.44
2023-04-02T02:14:27.620Z,70.33
2023-04-02T02:15:34.426Z,70.44
2023-04-02T02:16:43.145Z,70.38
2023-04-02T02:17:46.996Z,70.43
2023-04-02T02:18:56.437Z,70.32
2023-04-02T02:20:01.831Z,70.33
2023-04-02T02:21:08.214Z,70.26
2023-04-02T02:22:23.022Z,70.20
2023-04-02T02:23:26.662Z,70.16
2023-04-02T02:24:34.779Z,69.89
2023-04-02T02:25:38.184Z,69.85
2023-04-02T02:26:43.696Z,69.89
2023-04-02T02:28:02.139Z,69.92
2023-04-02T02:29:08.945Z,69.92
2023-04-02T02:30:29.682Z,69.98
2023-04-02T02:31:34.844Z,70.01
2023-04-02T02:32:44.544Z,70.07
2023-04-02T02:33:51.635Z,70.15
2023-04-02T02:35:19.799Z,70.43
2023-04-02T02:36:29.307Z,70.49
2023-04-02T02:37:38.463Z,70.61
2023-04-02T02:39:06.402Z,70.62
2023-04-02T02:40:25.493Z,70.58
2023-04-02T02:41:41.338Z,70.66
2023-04-02T02:42:51.291Z,70.80
2023-04-02T02:44:17.091Z,70.92
2023-04-02T02:45:25.630Z,71.01
2023-04-02T02:46:31.415Z,71.01
2023-04-02T02:47:41.289Z,71.09
2023-04-02T02:48:45.297Z,71.31
2023-04-02T02:49:53.658Z,71.41
2023-04-02T02:50:58.032Z,71.72
2023-04-02T02:52:05.247Z,71.88
2023-04-02T02:53:18.193Z,71.97
2023-04-02T02:54:22.215Z,72.16
2023-04-02T02:55:46.585Z,72.32
2023-04-02T02:56:55.834Z,72.44
2023-04-02T02:58:11.684Z,72.36
2023-04-02T02:59:16.249Z,72.25
2023-04-02T03:00:21.005Z,72.24
2023-04-02T03:01:23.942Z,72.29
2023-04-02T03:02:29.542Z,72.31
2023-04-02T03:03:35.552Z,72.30
2023-04-02T03:04:43.838Z,72.44
2023-04-02T03:05:52.341Z,72.56
2023-04-02T03:06:57.951Z,72.62
2023-04-02T03:08:03.191Z,72.38
2023-04-02T03:09:21.905Z,72.86
2023-04-02T03:10:49.888Z,72.74
2023-04-02T03:12:05.508Z,72.54
2023-04-02T03:13:26.225Z,72.28
2023-04-02T03:14:36.747Z,72.09
2023-04-02T03:15:52.622Z,72.09
2023-04-02T03:17:09.804Z,71.49
2023-04-02T03:18:18.393Z,71.58
2023-04-02T03:19:37.214Z,71.34
2023-04-02T03:20:53.699Z,71.45
2023-04-02T03:22:18.406Z,71.58
2023-04-02T03:23:48.608Z,71.92
2023-04-02T03:25:00.914Z,71.98
2023-04-02T03:26:19.802Z,72.14
2023-04-02T03:27:29.292Z,72.12
2023-04-02T03:28:35.874Z,72.14
2023-04-02T03:29:44.481Z,72.19
2023-04-02T03:30:56.993Z,72.43
2023-04-02T03:32:13.380Z,72.29
2023-04-02T03:33:28.346Z,72.22
2023-04-02T03:34:38.316Z,72.14
2023-04-02T03:36:01.549Z,72.19
2023-04-02T03:37:18.429Z,72.22
2023-04-02T03:38:28.903Z,72.25
2023-04-02T03:39:38.587Z,72.33
2023-04-02T03:40:47.146Z,72.27
2023-04-02T03:42:00.196Z,72.46
2023-04-02T03:43:15.137Z,72.42
2023-04-02T03:44:25.467Z,72.49
2023-04-02T03:45:45.372Z,72.33
2023-04-02T03:46:58.650Z,72.47
2023-04-02T03:48:35.888Z,72.50
2023-04-02T03:49:49.628Z,72.45
2023-04-02T03:51:00.131Z,72.33
2023-04-02T03:52:15.099Z,72.21
2023-04-02T03:53:18.122Z,72.22
2023-04-02T03:54:21.141Z,72.21
2023-04-02T03:55:27.391Z,72.12
2023-04-02T03:56:41.011Z,72.06
2023-04-02T03:58:22.643Z,71.72
2023-04-02T03:59:47.413Z,71.74
2023-04-02T04:01:01.269Z,71.67
2023-04-02T04:02:17.240Z,71.75
2023-04-02T04:03:31.769Z,71.76
2023-04-02T04:04:36.194Z,71.81
2023-04-02T04:05:49.656Z,71.72
2023-04-02T04:06:54.062Z,71.60
2023-04-02T04:08:02.893Z,71.59
2023-04-02T04:09:22.261Z,71.51
2023-04-02T04:10:29.280Z,71.63
2023-04-02T04:11:36.200Z,71.65
2023-04-02T04:12:47.369Z,71.47
2023-04-02T04:13:58.828Z,71.39
2023-04-02T04:15:17.822Z,71.39
2023-04-02T04:16:25.823Z,71.59
2023-04-02T04:18:25.502Z,71.23
2023-04-02T04:19:53.192Z,71.07
2023-04-02T04:21:05.025Z,70.72
2023-04-02T04:22:15.857Z,70.80
2023-04-02T04:23:31.415Z,70.81
2023-04-02T04:24:40.433Z,70.92
2023-04-02T04:25:43.315Z,71.07
2023-04-02T04:26:54.830Z,71.15
2023-04-02T04:28:25.518Z,71.43
2023-04-02T04:29:46.827Z,71.48
2023-04-02T04:31:05.350Z,71.64
2023-04-02T04:32:33.780Z,71.60
2023-04-02T04:33:45.014Z,71.54
2023-04-02T04:34:54.639Z,71.49
2023-04-02T04:36:00.393Z,71.37
2023-04-02T04:37:09.041Z,71.33
2023-04-02T04:38:13.394Z,71.29
2023-04-02T04:39:24.727Z,71.41
2023-04-02T04:40:31.847Z,71.59
2023-04-02T04:41:39.194Z,71.57
2023-04-02T04:42:45.225Z,71.56
2023-04-02T04:44:12.207Z,71.70
2023-04-02T04:45:42.803Z,71.98
2023-04-02T04:47:20.375Z,71.98
2023-04-02T04:48:35.985Z,71.90
2023-04-02T04:49:55.148Z,71.80
2023-04-02T04:51:19.425Z,71.86
2023-04-02T04:52:29.210Z,71.62
2023-04-02T04:53:32.395Z,71.65
2023-04-02T04:54:39.621Z,71.60
2023-04-02T04:55:46.531Z,71.56
2023-04-02T04:56:53.123Z,71.71
2023-04-02T04:58:01.956Z,71.83
2023-04-02T04:59:43.123Z,71.85
2023-04-02T05:01:27.476Z,71.98
2023-04-02T05:02:42.247Z,71.96
2023-04-02T05:03:47.674Z,72.23
2023-04-02T05:04:53.083Z,72.27
2023-04-02T05:06:13.047Z,72.30
2023-04-02T05:07:21.582Z,72.32
2023-04-02T05:08:30.069Z,72.31
2023-04-02T05:09:35.792Z,72.28
2023-04-02T05:11:03.622Z,72.28
2023-04-02T05:12:09.209Z,72.22
2023-04-02T05:13:26.984Z,72.29
2023-04-02T05:14:45.922Z,72.40
2023-04-02T05:16:16.909Z,72.43
2023-04-02T05:17:42.942Z,72.67
2023-04-02T05:18:54.611Z,72.51
2023-04-02T05:20:18.338Z,72.49
2023-04-02T05:21:27.635Z,72.33
2023-04-02T05:22:48.561Z,72.15
2023-04-02T05:23:57.719Z,72.00
2023-04-02T05:25:26.032Z,71.85
2023-04-02T05:26:44.464Z,71.67
2023-04-02T05:27:53.947Z,71.58
2023-04-02T05:28:59.782Z,71.58
2023-04-02T05:30:12.945Z,71.62
2023-04-02T05:31:27.247Z,71.63
2023-04-02T05:32:36.212Z,71.56
2023-04-02T05:33:40.785Z,71.67
2023-04-02T05:34:49.785Z,71.70
2023-04-02T05:36:14.096Z,71.71
2023-04-02T05:37:23.640Z,71.65
2023-04-02T05:38:29.995Z,71.53
2023-04-02T05:39:34.035Z,71.83
2023-04-02T05:40:47.465Z,71.95
2023-04-02T05:42:02.230Z,71.94
2023-04-02T05:43:10.500Z,71.84
2023-04-02T05:44:39.665Z,71.83
2023-04-02T05:45:46.667Z,71.77
2023-04-02T05:47:18.828Z,71.72
2023-04-02T05:48:27.732Z,71.64
2023-04-02T05:49:48.417Z,71.81
2023-04-02T05:50:55.856Z,71.75
2023-04-02T05:52:03.335Z,71.67
2023-04-02T05:53:20.402Z,71.80
2023-04-02T05:54:35.427Z,71.76
2023-04-02T05:55:41.262Z,71.89
2023-04-02T05:56:48.357Z,72.02
2023-04-02T05:58:13.401Z,71.96
2023-04-02T05:59:45.606Z,71.74
2023-04-02T06:00:55.160Z,71.69
2023-04-02T06:02:08.701Z,71.62
2023-04-02T06:03:46.053Z,71.46
2023-04-02T06:04:56.961Z,71.52
2023-04-02T06:06:05.091Z,71.42
2023-04-02T06:07:40.125Z,71.49
2023-04-02T06:08:53.381Z,71.42
2023-04-02T06:09:56.175Z,71.29
2023-04-02T06:11:19.576Z,71.26
2023-04-02T06:12:25.387Z,71.42
2023-04-02T06:13:29.305Z,71.49
2023-04-02T06:14:32.400Z,71.48
2023-04-02T06:15:37.586Z,71.46
2023-04-02T06:16:40.754Z,72.05
2023-04-02T06:17:54.547Z,72.03
2023-04-02T06:18:58.129Z,71.72
2023-04-02T06:20:03.163Z,71.72
2023-04-02T06:21:06.798Z,71.77
2023-04-02T06:22:20.437Z,71.65
2023-04-02T06:23:41.651Z,71.56
2023-04-02T06:24:48.638Z,71.31
2023-04-02T06:26:17.940Z,71.34
2023-04-02T06:27:23.994Z,71.29
2023-04-02T06:28:43.975Z,71.24
2023-04-02T06:29:49.778Z,70.66
2023-04-02T06:30:59.477Z,70.53
2023-04-02T06:32:03.411Z,70.72
2023-04-02T06:33:06.956Z,70.43
2023-04-02T06:34:18.454Z,70.45
2023-04-02T06:35:21.565Z,70.75
2023-04-02T06:36:26.789Z,70.26
2023-04-02T06:37:35.103Z,70.06
2023-04-02T06:38:39.279Z,69.98
2023-04-02T06:39:42.555Z,70.06
2023-04-02T06:40:58.247Z,69.45
2023-04-02T06:42:11.402Z,69.27
2023-04-02T06:43:34.736Z,69.27
2023-04-02T06:44:39.084Z,69.02
2023-04-02T06:45:45.353Z,68.98
2023-04-02T06:47:11.200Z,68.98
2023-04-02T06:48:20.666Z,68.74
2023-04-02T06:49:44.024Z,68.36
2023-04-02T06:50:57.849Z,68.77
2023-04-02T06:52:03.953Z,68.48
2023-04-02T06:53:12.991Z,68.23
2023-04-02T06:54:17.877Z,67.35
2023-04-02T06:55:58.202Z,67.20
2023-04-02T06:57:01.160Z,67.01
2023-04-02T06:58:04.012Z,66.37
2023-04-02T06:59:08.634Z,66.27
2023-04-02T07:00:34.288Z,66.13
2023-04-02T07:01:48.216Z,66.41
2023-04-02T07:02:52.458Z,66.65
2023-04-02T07:03:56.098Z,66.50
2023-04-02T07:05:05.540Z,66.36
2023-04-02T07:06:15.432Z,66.38
2023-04-02T07:07:18.422Z,66.68
2023-04-02T07:08:22.050Z,66.13
2023-04-02T07:09:24.915Z,66.01
2023-04-02T07:10:28.435Z,65.85
2023-04-02T07:11:31.291Z,66.02
2023-04-02T07:12:34.102Z,65.45
2023-04-02T07:13:37.004Z,65.18
2023-04-02T07:14:39.794Z,65.31
2023-04-02T07:15:42.687Z,65.31
2023-04-02T07:16:45.901Z,65.05
2023-04-02T07:17:48.864Z,64.49
2023-04-02T07:18:51.899Z,65.57
2023-04-02T07:19:54.814Z,65.13
2023-04-02T07:20:58.351Z,65.02
2023-04-02T07:22:01.363Z,64.63
2023-04-02T07:23:04.687Z,64.74
2023-04-02T07:24:08.208Z,64.32
2023-04-02T07:25:11.836Z,64.57
2023-04-02T07:26:17.720Z,64.07
2023-04-02T07:27:20.538Z,63.23
2023-04-02T07:28:24.128Z,63.51
2023-04-02T07:29:26.963Z,63.42
2023-04-02T07:30:29.947Z,62.83
2023-04-02T07:31:32.879Z,62.69
2023-04-02T07:32:36.521Z,62.70
2023-04-02T07:33:40.691Z,62.81
2023-04-02T07:34:45.020Z,62.69
2023-04-02T07:35:49.103Z,62.22
2023-04-02T07:36:52.799Z,62.37
2023-04-02T07:37:55.645Z,61.65
2023-04-02T07:38:59.346Z,61.76
2023-04-02T07:40:02.370Z,62.08
2023-04-02T07:41:08.431Z,61.66
2023-04-02T07:42:11.480Z,62.06
2023-04-02T07:43:14.412Z,61.97
2023-04-02T07:44:17.572Z,61.59
2023-04-02T07:45:20.596Z,61.37
2023-04-02T07:46:23.556Z,61.00
2023-04-02T07:47:26.579Z,61.53
2023-04-02T07:48:30.056Z,61.49
2023-04-02T07:49:32.877Z,61.63
2023-04-02T07:50:36.059Z,61.70
2023-04-02T07:51:38.937Z,61.42
2023-04-02T07:52:45.342Z,61.57
2023-04-02T07:53:51.465Z,60.55
2023-04-02T07:54:54.253Z,60.50
2023-04-02T07:55:58.796Z,60.77
2023-04-02T07:57:01.671Z,60.88
2023-04-02T07:58:04.545Z,60.60
2023-04-02T07:59:07.686Z,60.52
2023-04-02T08:00:13.187Z,59.88
2023-04-02T08:01:27.483Z,60.35
2023-04-02T08:02:30.358Z,59.32
2023-04-02T08:03:34.183Z,60.55
2023-04-02T08:04:37.163Z,59.58
2023-04-02T08:05:40.176Z,59.94
2023-04-02T08:06:43.270Z,59.66
2023-04-02T08:07:54.136Z,59.49
2023-04-02T08:08:58.546Z,59.11
2023-04-02T08:10:01.435Z,59.62
2023-04-02T08:11:04.300Z,59.34
2023-04-02T08:12:07.399Z,60.15
2023-04-02T08:13:10.253Z,59.94
2023-04-02T08:14:13.645Z,59.70
2023-04-02T08:15:17.416Z,59.15
2023-04-02T08:16:20.514Z,59.12
2023-04-02T08:17:23.933Z,59.79
2023-04-02T08:18:26.930Z,59.51
2023-04-02T08:19:29.887Z,60.12
2023-04-02T08:20:32.881Z,60.10
2023-04-02T08:21:35.722Z,59.90
2023-04-02T08:22:38.900Z,60.10
2023-04-02T08:23:41.808Z,59.97
2023-04-02T08:24:44.658Z,60.17
2023-04-02T08:25:47.873Z,60.38
2023-04-02T08:26:52.746Z,59.87
2023-04-02T08:27:55.800Z,59.87
2023-04-02T08:28:58.666Z,60.00
2023-04-02T08:30:01.473Z,60.24
2023-04-02T08:31:05.905Z,59.70
2023-04-02T08:32:08.890Z,60.33
2023-04-02T08:33:12.069Z,60.00
2023-04-02T08:34:15.227Z,59.62
2023-04-02T08:35:18.185Z,60.09
2023-04-02T08:36:26.078Z,60.62
2023-04-02T08:37:29.381Z,60.82
2023-04-02T08:38:32.274Z,60.89
2023-04-02T08:39:36.488Z,61.21
2023-04-02T08:40:42.909Z,61.25
2023-04-02T08:42:10.215Z,61.46
2023-04-02T08:43:23.472Z,60.97
2023-04-02T08:44:39.286Z,61.47
2023-04-02T08:46:20.272Z,61.41
2023-04-02T08:47:27.283Z,61.22
2023-04-02T08:48:33.196Z,61.62
2023-04-02T08:49:38.856Z,60.61
2023-04-02T08:50:46.514Z,60.45
2023-04-02T08:51:49.576Z,60.62
2023-04-02T08:52:53.122Z,60.63
2023-04-02T08:54:01.670Z,60.78
2023-04-02T08:55:13.988Z,60.60
2023-04-02T08:57:06.508Z,60.93
2023-04-02T08:58:32.052Z,60.75
2023-04-02T08:59:41.437Z,60.71
2023-04-02T09:00:46.425Z,60.93
2023-04-02T09:01:56.414Z,61.23
2023-04-02T09:03:15.635Z,60.62
2023-04-02T09:04:22.431Z,60.97
2023-04-02T09:05:29.917Z,60.89
2023-04-02T09:06:34.844Z,60.65
2023-04-02T09:07:37.843Z,60.29
2023-04-02T09:08:41.891Z,61.16
2023-04-02T09:09:49.865Z,61.32
2023-04-02T09:11:27.401Z,60.43
2023-04-02T09:12:33.955Z,61.24
2023-04-02T09:13:42.031Z,60.54
2023-04-02T09:14:51.629Z,60.03
2023-04-02T09:16:07.398Z,60.55
2023-04-02T09:17:24.645Z,60.27
2023-04-02T09:18:31.429Z,60.26
2023-04-02T09:19:38.823Z,59.69
2023-04-02T09:20:42.291Z,59.11
2023-04-02T09:21:58.766Z,59.19
2023-04-02T09:23:01.698Z,58.30
2023-04-02T09:24:06.187Z,58.63
2023-04-02T09:25:15.831Z,59.03
2023-04-02T09:26:24.874Z,59.54
2023-04-02T09:27:33.574Z,59.32
2023-04-02T09:28:36.413Z,59.43
2023-04-02T09:29:46.028Z,58.84
2023-04-02T09:30:49.105Z,59.26
2023-04-02T09:32:06.397Z,59.22
2023-04-02T09:33:10.343Z,59.73
2023-04-02T09:34:35.954Z,59.23
2023-04-02T09:35:50.989Z,59.99
2023-04-02T09:36:54.097Z,59.75
2023-04-02T09:38:26.147Z,59.85
2023-04-02T09:39:29.133Z,59.00
2023-04-02T09:40:46.646Z,58.48
2023-04-02T09:41:59.069Z,59.34
2023-04-02T09:43:19.851Z,58.83
2023-04-02T09:44:26.627Z,58.79
2023-04-02T09:45:29.830Z,59.19
2023-04-02T09:46:32.822Z,59.43
2023-04-02T09:47:37.069Z,59.28
2023-04-02T09:48:45.569Z,59.87
2023-04-02T09:49:48.544Z,59.72
2023-04-02T09:50:51.532Z,59.80
2023-04-02T09:52:09.785Z,59.08
2023-04-02T09:53:50.410Z,59.04
2023-04-02T09:55:14.543Z,58.76
2023-04-02T09:56:19.305Z,58.56
2023-04-02T09:57:29.501Z,58.98
2023-04-02T09:58:32.524Z,59.33
2023-04-02T09:59:35.686Z,59.37
2023-04-02T10:00:39.009Z,59.18
2023-04-02T10:01:54.789Z,59.59
2023-04-02T10:03:08.185Z,58.72
2023-04-02T10:04:48.916Z,58.58
2023-04-02T10:06:12.785Z,59.37
2023-04-02T10:07:49.123Z,59.74
2023-04-02T10:08:52.972Z,59.18
2023-04-02T10:10:03.208Z,59.02
2023-04-02T10:11:26.951Z,58.01
2023-04-02T10:12:42.493Z,58.25
2023-04-02T10:14:01.908Z,58.20
2023-04-02T10:15:05.834Z,58.87
2023-04-02T10:16:11.640Z,58.94
2023-04-02T10:17:22.452Z,59.19
2023-04-02T10:18:31.059Z,58.85
2023-04-02T10:19:49.008Z,59.13
2023-04-02T10:20:55.242Z,58.66
2023-04-02T10:22:00.292Z,58.18
2023-04-02T10:23:04.441Z,58.30
2023-04-02T10:24:14.521Z,58.69
2023-04-02T10:25:20.824Z,58.18
2023-04-02T10:26:29.660Z,58.51
2023-04-02T10:27:44.257Z,58.64
2023-04-02T10:29:06.859Z,59.58
2023-04-02T10:30:10.818Z,59.21
2023-04-02T10:31:28.733Z,59.03
2023-04-02T10:32:49.942Z,58.90
2023-04-02T10:34:02.894Z,58.72
2023-04-02T10:35:12.977Z,59.86
2023-04-02T10:36:48.104Z,59.16
2023-04-02T10:38:25.763Z,59.93
2023-04-02T10:40:12.054Z,58.95
2023-04-02T10:41:27.957Z,57.04
2023-04-02T10:43:04.830Z,56.90
2023-04-02T10:44:31.765Z,56.38
2023-04-02T10:45:34.840Z,55.59
2023-04-02T10:47:15.118Z,56.00
2023-04-02T10:48:29.686Z,56.72
2023-04-02T10:49:52.782Z,55.87
2023-04-02T10:51:32.191Z,55.31
2023-04-02T10:52:44.586Z,54.87
2023-04-02T10:53:53.978Z,53.39
2023-04-02T10:55:02.960Z,53.94
2023-04-02T10:56:11.436Z,54.15
2023-04-02T10:57:40.784Z,53.13
2023-04-02T10:59:12.238Z,54.05
2023-04-02T11:00:22.353Z,54.52
2023-04-02T11:01:30.547Z,54.70
2023-04-02T11:02:36.240Z,54.94
2023-04-02T11:03:49.996Z,54.57
2023-04-02T11:04:57.123Z,54.03
2023-04-02T11:06:19.923Z,54.09
2023-04-02T11:07:27.666Z,53.02
2023-04-02T11:08:50.050Z,53.24
2023-04-02T11:09:56.101Z,53.30
2023-04-02T11:11:22.604Z,53.86
2023-04-02T11:12:41.770Z,54.55
2023-04-02T11:14:00.160Z,54.68
2023-04-02T11:15:03.981Z,54.83
2023-04-02T11:16:07.184Z,54.62
2023-04-02T11:17:15.453Z,55.16
2023-04-02T11:18:26.049Z,55.26
2023-04-02T11:19:33.163Z,56.11
2023-04-02T11:21:00.781Z,56.30
2023-04-02T11:22:06.685Z,57.24
2023-04-02T11:23:22.832Z,56.69
2023-04-02T11:24:34.095Z,56.07
2023-04-02T11:25:37.503Z,55.69
2023-04-02T11:26:47.491Z,55.44
2023-04-02T11:27:50.463Z,56.10
2023-04-02T11:29:04.358Z,55.78
2023-04-02T11:30:07.818Z,55.66
2023-04-02T11:31:22.117Z,55.69
2023-04-02T11:32:30.891Z,56.15
2023-04-02T11:33:39.920Z,56.20
2023-04-02T11:34:59.795Z,56.26
2023-04-02T11:36:47.533Z,56.55
2023-04-02T11:37:50.442Z,56.67
2023-04-02T11:38:54.943Z,57.72
2023-04-02T11:40:01.096Z,56.27
2023-04-02T11:41:04.096Z,56.22
2023-04-02T11:42:24.946Z,56.15
2023-04-02T11:43:34.187Z,55.35
2023-04-02T11:44:37.297Z,54.84
2023-04-02T11:45:52.848Z,55.20
2023-04-02T11:47:23.559Z,54.52
2023-04-02T11:48:37.574Z,55.55
2023-04-02T11:49:42.286Z,54.22
2023-04-02T11:50:47.006Z,54.88
2023-04-02T11:52:02.175Z,53.45
2023-04-02T11:53:14.834Z,53.30
2023-04-02T11:54:31.112Z,53.37
2023-04-02T11:55:36.317Z,53.32
2023-04-02T11:57:12.374Z,52.78
2023-04-02T11:58:22.369Z,52.96
2023-04-02T11:59:46.389Z,53.33
2023-04-02T12:00:53.720Z,52.21
2023-04-02T12:02:18.316Z,51.03
2023-04-02T12:03:49.817Z,50.95
2023-04-02T12:05:16.945Z,51.19
2023-04-02T12:06:27.114Z,51.55
2023-04-02T12:08:07.032Z,52.94
2023-04-02T12:09:25.055Z,52.25
2023-04-02T12:10:35.845Z,51.95
2023-04-02T12:11:41.355Z,53.01
2023-04-02T12:12:44.544Z,52.14
2023-04-02T12:13:52.244Z,51.85
2023-04-02T12:14:57.659Z,50.78
2023-04-02T12:16:01.876Z,51.36
2023-04-02T12:17:17.263Z,52.27
2023-04-02T12:18:24.820Z,52.09
2023-04-02T12:19:28.947Z,53.44
2023-04-02T12:20:32.922Z,52.38
2023-04-02T12:21:36.146Z,50.93
2023-04-02T12:22:48.923Z,50.07
2023-04-02T12:23:55.800Z,50.21
2023-04-02T12:25:16.854Z,51.67
2023-04-02T12:26:33.442Z,51.76
2023-04-02T12:27:39.328Z,52.08
2023-04-02T12:28:43.712Z,51.90
2023-04-02T12:29:46.688Z,51.17
2023-04-02T12:30:52.385Z,50.34
2023-04-02T12:31:58.090Z,51.51
2023-04-02T12:33:17.093Z,53.31
2023-04-02T12:34:22.628Z,52.78
2023-04-02T12:35:37.718Z,52.90
2023-04-02T12:36:41.665Z,52.01
2023-04-02T12:37:46.182Z,51.57
2023-04-02T12:38:57.681Z,52.41
2023-04-02T12:40:07.156Z,51.61
2023-04-02T12:41:31.299Z,51.70
2023-04-02T12:42:39.013Z,52.56
2023-04-02T12:43:44.698Z,52.34
2023-04-02T12:44:50.832Z,52.21
2023-04-02T12:46:01.855Z,52.40
2023-04-02T12:47:06.075Z,52.75
2023-04-02T12:48:12.897Z,52.28
2023-04-02T12:49:29.588Z,51.91
2023-04-02T12:50:35.283Z,51.03
2023-04-02T12:51:38.943Z,50.70
2023-04-02T12:52:47.040Z,51.74
2023-04-02T12:53:57.113Z,50.74
2023-04-02T12:55:02.658Z,50.03
2023-04-02T12:56:06.999Z,50.72
2023-04-02T12:57:28.081Z,51.70
2023-04-02T12:58:41.994Z,50.95
2023-04-02T12:59:45.179Z,50.94
2023-04-02T13:00:48.250Z,51.20
2023-04-02T13:02:02.800Z,51.43
2023-04-02T13:03:19.717Z,51.90
2023-04-02T13:04:23.468Z,52.11
2023-04-02T13:05:46.137Z,52.32
2023-04-02T13:06:53.469Z,52.57
2023-04-02T13:07:56.361Z,53.20
2023-04-02T13:09:02.170Z,53.33
2023-04-02T13:10:23.034Z,53.72
2023-04-02T13:11:36.930Z,53.66
2023-04-02T13:12:42.057Z,54.10
2023-04-02T13:13:47.453Z,54.21
2023-04-02T13:15:03.371Z,54.41
2023-04-02T13:16:18.693Z,54.11
2023-04-02T13:18:29.968Z,53.11
2023-04-02T13:19:35.087Z,53.38
2023-04-02T13:20:43.117Z,53.39
2023-04-02T13:21:47.303Z,53.65
2023-04-02T13:22:50.213Z,53.37
2023-04-02T13:23:53.076Z,53.68
2023-04-02T13:24:57.682Z,54.15
2023-04-02T13:26:27.438Z,54.46
2023-04-02T13:27:30.323Z,54.20
2023-04-02T13:28:33.193Z,53.99
2023-04-02T13:29:37.720Z,54.42
2023-04-02T13:30:40.652Z,54.90
2023-04-02T13:31:43.976Z,55.02
2023-04-02T13:32:47.197Z,55.38
2023-04-02T13:33:50.130Z,56.03
2023-04-02T13:34:53.353Z,55.91
2023-04-02T13:35:56.381Z,55.87
2023-04-02T13:36:59.888Z,55.60
2023-04-02T13:38:04.262Z,54.65
2023-04-02T13:39:07.388Z,54.82
2023-04-02T13:40:15.582Z,55.27
2023-04-02T13:41:29.815Z,55.27
2023-04-02T13:42:32.794Z,55.50
2023-04-02T13:43:35.781Z,57.10
2023-04-02T13:44:38.957Z,57.88
2023-04-02T13:45:43.851Z,57.03
2023-04-02T13:46:46.795Z,55.46
2023-04-02T13:47:49.719Z,54.88
2023-04-02T13:48:54.224Z,56.24
2023-04-02T13:49:57.041Z,57.74
2023-04-02T13:51:00.043Z,60.27
2023-04-02T13:52:07.474Z,61.23
2023-04-02T13:53:21.936Z,62.22
2023-04-02T13:54:32.404Z,61.72
2023-04-02T13:55:41.208Z,60.63
2023-04-02T13:56:44.435Z,61.76
2023-04-02T13:57:47.463Z,60.37
2023-04-02T13:58:50.464Z,60.53
2023-04-02T13:59:55.107Z,61.10
2023-04-02T14:00:58.164Z,60.87
2023-04-02T14:02:09.987Z,62.01
2023-04-02T14:03:19.922Z,60.79
2023-04-02T14:04:27.216Z,60.46
2023-04-02T14:05:55.064Z,61.66
2023-04-02T14:07:21.452Z,62.25
2023-04-02T14:08:52.859Z,62.24
2023-04-02T14:10:18.391Z,62.95
2023-04-02T14:12:09.079Z,62.96
2023-04-02T14:13:14.798Z,62.19
2023-04-02T14:14:46.235Z,63.17
2023-04-02T14:15:52.080Z,63.44
2023-04-02T14:17:12.085Z,61.23
2023-04-02T14:18:44.605Z,59.99
2023-04-02T14:20:13.370Z,59.14
2023-04-02T14:21:22.507Z,59.65
2023-04-02T14:22:51.313Z,60.67
2023-04-02T14:24:13.125Z,61.23
2023-04-02T14:25:40.934Z,58.81
2023-04-02T14:26:46.872Z,59.23
2023-04-02T14:28:24.249Z,59.48
2023-04-02T14:29:43.700Z,58.43
2023-04-02T14:31:07.895Z,57.73
2023-04-02T14:32:32.778Z,56.97
2023-04-02T14:33:45.744Z,57.53
2023-04-02T14:35:26.857Z,57.64
2023-04-02T14:36:32.622Z,57.80
2023-04-02T14:37:50.706Z,58.15
2023-04-02T14:39:07.741Z,57.72
2023-04-02T14:40:19.654Z,57.89
2023-04-02T14:41:36.208Z,57.94
2023-04-02T14:43:02.051Z,58.71
2023-04-02T14:44:07.976Z,58.06
2023-04-02T14:45:36.904Z,57.84
2023-04-02T14:46:40.955Z,57.82
2023-04-02T14:48:28.302Z,58.02
2023-04-02T14:49:40.996Z,58.48
2023-04-02T14:50:44.497Z,58.73
2023-04-02T14:51:54.203Z,59.47
2023-04-02T14:53:01.741Z,58.72
2023-04-02T14:54:05.095Z,59.30
2023-04-02T14:55:19.310Z,59.35
2023-04-02T14:56:25.576Z,59.66
2023-04-02T14:57:32.836Z,59.72
2023-04-02T14:58:39.888Z,59.32
2023-04-02T15:00:03.931Z,59.63
2023-04-02T15:01:28.592Z,60.12
2023-04-02T15:02:46.048Z,60.12
2023-04-02T15:04:06.666Z,60.15
2023-04-02T15:05:30.021Z,60.30
2023-04-02T15:06:39.008Z,60.88
2023-04-02T15:07:50.884Z,60.83
2023-04-02T15:09:09.019Z,60.98
2023-04-02T15:10:38.127Z,60.95
2023-04-02T15:12:01.200Z,61.26
2023-04-02T15:13:09.888Z,61.57
2023-04-02T15:14:29.082Z,62.46
2023-04-02T15:15:45.889Z,61.79
2023-04-02T15:16:48.852Z,62.25
2023-04-02T15:17:51.815Z,61.74
2023-04-02T15:18:57.766Z,61.72
2023-04-02T15:20:14.996Z,61.60
2023-04-02T15:21:20.600Z,61.50